createdAt,value
2019-01-31T00:02:12.472Z,5.50
2019-01-31T00:05:12.682Z,5.20
2019-01-31T00:08:05.357Z,5.50
2019-01-31T00:11:04.958Z,5.50
2019-01-31T00:14:17.839Z,5.50
2019-01-31T00:17:27.245Z,5.20
2019-01-31T00:20:28.652Z,4.80
2019-01-31T00:23:34.699Z,4.60
2019-01-31T00:26:50.818Z,4.70
2019-01-31T00:29:54.239Z,4.80
2019-01-31T00:32:56.081Z,5.10
2019-01-31T00:35:52.694Z,4.70
2019-01-31T00:38:38.949Z,4.90
2019-01-31T00:41:51.771Z,4.70
2019-01-31T00:44:57.381Z,4.90
2019-01-31T00:48:13.890Z,4.80
2019-01-31T00:51:38.911Z,4.70
2019-01-31T00:55:01.847Z,4.60
2019-01-31T00:58:04.965Z,4.70
2019-01-31T01:01:11.539Z,4.60
2019-01-31T01:07:20.513Z,4.30
2019-01-31T01:10:42.462Z,4.50
2019-01-31T01:18:56.625Z,4.50
2019-01-31T01:21:54.217Z,4.20
2019-01-31T01:25:10.347Z,4.40
2019-01-31T01:27:58.545Z,4.50
2019-01-31T01:30:53.760Z,4.40
2019-01-31T01:34:24.821Z,4.40
2019-01-31T01:37:01.494Z,4.20
2019-01-31T01:40:07.040Z,4.10
2019-01-31T01:43:00.727Z,4.20
2019-01-31T01:46:13.003Z,4.00
2019-01-31T01:51:52.992Z,3.90
2019-01-31T02:00:21.667Z,3.90
2019-01-31T02:03:27.214Z,4.00
2019-01-31T02:06:40.207Z,3.90
2019-01-31T02:10:05.186Z,3.80
2019-01-31T02:13:15.914Z,3.80
2019-01-31T02:18:54.649Z,3.70
2019-01-31T02:27:07.839Z,3.60
2019-01-31T02:33:04.718Z,3.90
2019-01-31T02:39:14.084Z,3.50
2019-01-31T02:42:23.314Z,3.50
2019-01-31T02:48:08.617Z,3.60
2019-01-31T02:51:11.754Z,3.70
2019-01-31T02:54:10.004Z,3.70
2019-01-31T02:57:09.156Z,3.70
2019-01-31T03:05:10.778Z,3.40
2019-01-31T03:10:52.840Z,3.40
2019-01-31T03:13:25.944Z,3.40
2019-01-31T03:16:29.237Z,3.30
2019-01-31T03:19:30.048Z,3.10
2019-01-31T03:22:24.739Z,3.40
2019-01-31T03:27:54.893Z,3.10
2019-01-31T03:31:09.086Z,3.20
2019-01-31T03:34:08.454Z,3.20
2019-01-31T03:39:52.902Z,3.30
2019-01-31T03:42:50.925Z,3.30
2019-01-31T03:46:01.651Z,3.20
2019-01-31T03:48:38.658Z,3.40
2019-01-31T03:51:52.930Z,3.30
2019-01-31T03:57:49.012Z,3.30
2019-01-31T04:00:26.084Z,3.30
2019-01-31T04:03:26.192Z,3.40
2019-01-31T04:06:05.969Z,3.40
2019-01-31T04:08:34.715Z,3.30
2019-01-31T04:11:03.502Z,3.50
2019-01-31T04:13:32.159Z,3.50
2019-01-31T04:16:00.559Z,3.40
2019-01-31T04:18:29.165Z,3.20
2019-01-31T04:20:57.748Z,3.20
2019-01-31T04:25:54.566Z,3.30
2019-01-31T04:28:23.103Z,3.50
2019-01-31T04:40:44.616Z,3.50
2019-01-31T04:43:13.052Z,3.50
2019-01-31T04:48:10.011Z,3.40
2019-01-31T04:50:38.480Z,3.50
2019-01-31T04:55:39.101Z,3.40
2019-01-31T04:58:07.681Z,3.30
2019-01-31T05:05:36.346Z,3.20
2019-01-31T05:08:04.951Z,3.20
2019-01-31T05:13:05.524Z,3.60
2019-01-31T05:15:34.036Z,3.40
2019-01-31T05:23:00.475Z,3.40
2019-01-31T05:25:29.194Z,3.50
2019-01-31T05:27:57.788Z,3.30
2019-01-31T05:32:58.865Z,3.30
2019-01-31T05:35:26.202Z,3.60
2019-01-31T05:37:55.535Z,3.60
2019-01-31T05:40:24.110Z,3.30
2019-01-31T05:42:52.790Z,3.40
2019-01-31T05:47:49.604Z,3.40
2019-01-31T05:50:22.388Z,3.40
2019-01-31T05:52:51.037Z,3.50
2019-01-31T05:55:19.646Z,3.30
2019-01-31T05:57:49.282Z,3.70
2019-01-31T06:02:48.952Z,3.80
2019-01-31T06:05:17.501Z,3.50
2019-01-31T06:07:46.991Z,3.70
2019-01-31T06:10:15.637Z,3.70
2019-01-31T06:12:44.284Z,3.60
2019-01-31T06:15:14.394Z,3.70
2019-01-31T06:17:43.085Z,4.20
2019-01-31T06:20:14.428Z,4.10
2019-01-31T06:22:42.982Z,4.10
2019-01-31T06:25:11.960Z,3.70
2019-01-31T06:27:40.647Z,3.60
2019-01-31T06:30:10.743Z,3.70
2019-01-31T06:32:39.480Z,3.60
2019-01-31T06:35:08.943Z,2.70
2019-01-31T06:37:37.494Z,3.70
2019-01-31T06:40:08.103Z,4.00
2019-01-31T06:45:07.271Z,4.40
2019-01-31T06:47:35.855Z,4.20
2019-01-31T06:50:04.941Z,4.40
2019-01-31T06:52:33.497Z,4.60
2019-01-31T06:57:30.556Z,4.50
2019-01-31T06:59:59.079Z,4.80
2019-01-31T07:02:27.796Z,5.00
2019-01-31T07:04:56.419Z,4.80
2019-01-31T07:07:24.892Z,4.70
2019-01-31T07:09:53.663Z,4.70
2019-01-31T07:12:22.370Z,4.60
2019-01-31T07:14:51.025Z,4.70
2019-01-31T07:17:19.694Z,4.80
2019-01-31T07:19:48.410Z,5.00
2019-01-31T07:22:16.783Z,5.00
2019-01-31T07:24:45.400Z,5.20
2019-01-31T07:27:13.987Z,5.10
2019-01-31T07:29:42.558Z,5.40
2019-01-31T07:32:11.017Z,5.20
2019-01-31T07:34:39.739Z,5.30
2019-01-31T07:39:36.580Z,5.30
2019-01-31T07:42:05.281Z,5.30
2019-01-31T07:44:34.025Z,5.60
2019-01-31T07:47:02.745Z,5.50
2019-01-31T07:49:33.261Z,5.50
2019-01-31T07:52:01.835Z,5.20
2019-01-31T07:54:30.220Z,5.50
2019-01-31T07:56:58.847Z,5.70
2019-01-31T07:59:27.310Z,5.40
2019-01-31T08:01:55.911Z,5.60
2019-01-31T08:06:52.809Z,5.90
2019-01-31T08:09:22.394Z,6.00
2019-01-31T08:11:52.843Z,5.80
2019-01-31T08:14:21.521Z,6.00
2019-01-31T08:16:50.158Z,5.90
2019-01-31T08:19:18.754Z,5.80
2019-01-31T08:21:47.338Z,5.90
2019-01-31T08:24:15.999Z,5.80
2019-01-31T08:26:44.557Z,6.10
2019-01-31T08:29:13.322Z,5.90
2019-01-31T08:31:41.962Z,5.80
2019-01-31T08:34:10.418Z,6.00
2019-01-31T08:39:22.990Z,6.40
2019-01-31T08:41:51.598Z,6.30
2019-01-31T08:44:20.136Z,6.10
2019-01-31T08:46:48.619Z,6.30
2019-01-31T08:49:17.319Z,6.60
2019-01-31T08:51:45.856Z,6.60
2019-01-31T08:54:14.469Z,6.90
2019-01-31T08:56:43.081Z,6.80
2019-01-31T08:59:11.716Z,6.70
2019-01-31T09:01:40.364Z,6.60
2019-01-31T09:04:09.203Z,6.70
2019-01-31T09:06:37.659Z,6.70
2019-01-31T09:09:10.154Z,6.50
2019-01-31T09:11:38.598Z,6.90
2019-01-31T09:14:07.340Z,6.70
2019-01-31T09:16:35.881Z,7.10
2019-01-31T09:19:04.614Z,7.10
2019-01-31T09:22:10.223Z,7.40
2019-01-31T09:25:08.626Z,6.80
2019-01-31T09:33:27.416Z,6.90
2019-01-31T09:36:28.931Z,7.30
2019-01-31T09:39:34.403Z,7.30
2019-01-31T09:42:26.985Z,7.50
2019-01-31T09:45:33.245Z,7.40
2019-01-31T09:51:30.521Z,7.60
2019-01-31T09:54:24.041Z,7.70
2019-01-31T09:57:29.081Z,7.70
2019-01-31T10:00:41.348Z,7.80
2019-01-31T10:03:35.235Z,8.10
2019-01-31T10:06:58.954Z,8.10
2019-01-31T10:09:54.921Z,8.00
2019-01-31T10:12:45.434Z,8.20
2019-01-31T10:16:16.238Z,8.20
2019-01-31T10:19:19.043Z,8.40
2019-01-31T10:22:25.032Z,8.10
2019-01-31T10:25:43.758Z,8.20
2019-01-31T10:29:18.329Z,8.40
2019-01-31T10:32:40.733Z,8.50
2019-01-31T10:35:56.189Z,8.70
2019-01-31T10:38:48.035Z,8.70
2019-01-31T10:41:41.672Z,8.80
2019-01-31T10:44:51.304Z,9.10
2019-01-31T10:48:16.476Z,5.70
2019-01-31T10:51:19.673Z,9.10
2019-01-31T10:54:25.512Z,8.90
2019-01-31T10:57:38.146Z,9.10
2019-01-31T11:00:29.855Z,9.50
2019-01-31T11:03:27.668Z,9.30
2019-01-31T11:06:49.519Z,9.40
2019-01-31T11:09:59.546Z,9.90
2019-01-31T11:13:24.875Z,9.70
2019-01-31T11:16:26.248Z,9.80
2019-01-31T11:19:21.280Z,10.00
2019-01-31T11:22:24.916Z,10.10
2019-01-31T11:25:20.155Z,10.40
2019-01-31T11:28:10.429Z,10.40
2019-01-31T11:31:20.019Z,10.70
2019-01-31T11:34:33.378Z,10.40
2019-01-31T11:37:37.643Z,10.20
2019-01-31T11:40:43.730Z,10.30
2019-01-31T11:43:44.405Z,10.60
2019-01-31T11:46:48.965Z,10.20
2019-01-31T12:10:09.234Z,11.40
2019-01-31T12:12:38.741Z,11.40
2019-01-31T12:15:07.617Z,11.50
2019-01-31T12:17:37.503Z,11.70
2019-01-31T12:20:07.132Z,12.30
2019-01-31T12:22:36.745Z,11.60
2019-01-31T12:25:05.505Z,11.80
2019-01-31T12:27:34.056Z,11.60
2019-01-31T12:30:04.910Z,11.70
2019-01-31T12:32:33.626Z,11.60
2019-01-31T12:35:02.101Z,11.90
2019-01-31T12:37:30.682Z,11.80
2019-01-31T12:39:59.106Z,11.70
2019-01-31T12:42:27.752Z,11.80
2019-01-31T12:44:56.423Z,11.70
2019-01-31T12:47:25.031Z,11.70
2019-01-31T12:49:53.710Z,11.60
2019-01-31T12:52:22.400Z,11.40
2019-01-31T12:54:50.956Z,11.00
2019-01-31T12:57:19.469Z,11.60
2019-01-31T12:59:48.005Z,11.70
2019-01-31T13:02:16.625Z,11.80
2019-01-31T13:04:45.328Z,11.80
2019-01-31T13:07:13.961Z,12.00
2019-01-31T13:09:42.579Z,12.30
2019-01-31T13:12:11.558Z,11.40
2019-01-31T13:14:40.060Z,11.60
2019-01-31T13:17:08.776Z,12.00
2019-01-31T13:19:37.362Z,12.20
2019-01-31T13:22:06.274Z,12.40
2019-01-31T13:24:34.968Z,12.70
2019-01-31T13:27:04.419Z,12.40
2019-01-31T13:29:33.048Z,11.40
2019-01-31T13:32:01.579Z,10.60
2019-01-31T13:34:30.053Z,11.90
2019-01-31T13:36:58.828Z,13.30
2019-01-31T13:39:27.460Z,13.00
2019-01-31T13:41:56.129Z,12.80
2019-01-31T13:44:24.818Z,12.70
2019-01-31T13:46:53.519Z,12.90
2019-01-31T13:49:22.008Z,13.30
2019-01-31T13:51:50.476Z,12.30
2019-01-31T13:54:19.082Z,11.60
2019-01-31T13:56:47.638Z,10.60
2019-01-31T13:59:16.070Z,10.90
2019-01-31T14:01:44.824Z,11.60
2019-01-31T14:04:13.546Z,12.50
2019-01-31T14:06:42.100Z,12.10
2019-01-31T14:09:10.929Z,11.20
2019-01-31T14:11:39.395Z,11.30
2019-01-31T14:14:09.279Z,11.10
2019-01-31T14:16:47.356Z,11.00
2019-01-31T14:19:08.602Z,11.30
2019-01-31T14:21:38.318Z,11.20
2019-01-31T14:24:06.846Z,11.00
2019-01-31T14:26:35.356Z,10.40
2019-01-31T14:29:04.754Z,10.10
2019-01-31T14:31:33.545Z,10.90
2019-01-31T14:34:02.321Z,10.70
2019-01-31T14:36:30.951Z,11.20
2019-01-31T14:39:01.413Z,10.40
2019-01-31T14:41:31.710Z,10.10
2019-01-31T14:44:00.032Z,10.20
2019-01-31T14:46:28.496Z,10.30
2019-01-31T14:48:57.052Z,10.10
2019-01-31T14:51:25.825Z,9.70
2019-01-31T14:53:54.543Z,9.60
2019-01-31T14:56:22.897Z,9.70
2019-01-31T14:58:51.533Z,9.60
2019-01-31T15:01:20.251Z,9.70
2019-01-31T15:03:51.410Z,9.70
2019-01-31T15:06:18.881Z,9.40
2019-01-31T15:08:47.303Z,9.10
2019-01-31T15:11:16.015Z,9.00
2019-01-31T15:13:44.534Z,9.00
2019-01-31T15:16:13.177Z,8.90
2019-01-31T15:18:41.978Z,8.80
2019-01-31T15:21:10.652Z,8.70
2019-01-31T15:23:40.161Z,8.60
2019-01-31T15:26:08.882Z,8.90
2019-01-31T15:28:37.373Z,8.80
2019-01-31T15:31:06.062Z,8.90
2019-01-31T15:33:34.770Z,9.10
2019-01-31T15:36:03.920Z,8.70
2019-01-31T15:38:32.516Z,8.70
2019-01-31T15:41:00.854Z,8.60
2019-01-31T15:43:29.633Z,8.50
2019-01-31T15:45:58.306Z,8.50
2019-01-31T15:48:26.993Z,8.30
2019-01-31T15:50:55.532Z,8.60
2019-01-31T15:53:24.142Z,8.60
2019-01-31T15:55:52.735Z,8.60
2019-01-31T16:00:52.128Z,8.40
2019-01-31T16:03:25.074Z,8.40
2019-01-31T16:05:54.067Z,8.30
2019-01-31T16:08:23.124Z,8.40
2019-01-31T16:10:51.865Z,8.10
2019-01-31T16:13:20.506Z,8.10
2019-01-31T16:15:53.653Z,8.30
2019-01-31T16:18:22.242Z,8.10
2019-01-31T16:20:50.968Z,8.30
2019-01-31T16:23:19.572Z,8.30
2019-01-31T16:25:48.242Z,8.40
2019-01-31T16:28:17.353Z,8.40
2019-01-31T16:30:46.003Z,8.20
2019-01-31T16:33:16.929Z,8.00
2019-01-31T16:35:46.752Z,7.90
2019-01-31T16:38:16.288Z,7.70
2019-01-31T16:40:46.046Z,7.60
2019-01-31T16:43:15.756Z,7.70
2019-01-31T16:45:46.215Z,7.50
2019-01-31T16:48:14.979Z,7.40
2019-01-31T16:50:43.522Z,7.50
2019-01-31T16:53:12.275Z,7.40
2019-01-31T16:55:42.686Z,7.60
2019-01-31T16:58:11.865Z,7.60
2019-01-31T17:00:40.577Z,7.50
2019-01-31T17:05:42.197Z,7.40
2019-01-31T17:08:10.838Z,7.50
2019-01-31T17:10:59.769Z,7.60
2019-01-31T17:13:28.513Z,7.70
2019-01-31T17:16:00.333Z,7.50
2019-01-31T17:18:28.772Z,7.80
2019-01-31T17:20:58.321Z,7.50
2019-01-31T17:23:26.782Z,7.50
2019-01-31T17:25:55.469Z,7.40
2019-01-31T17:28:25.995Z,7.10
2019-01-31T17:30:54.643Z,7.20
2019-01-31T17:33:23.151Z,7.30
2019-01-31T17:35:51.804Z,7.30
2019-01-31T17:38:20.319Z,7.50
2019-01-31T17:40:49.155Z,7.30
2019-01-31T17:43:17.860Z,7.10
2019-01-31T17:45:47.748Z,7.30
2019-01-31T17:48:17.478Z,7.40
2019-01-31T17:50:46.832Z,7.50
2019-01-31T17:53:20.226Z,7.40
2019-01-31T17:55:51.100Z,7.20
2019-01-31T17:58:20.706Z,7.20
2019-01-31T18:00:56.087Z,7.30
2019-01-31T18:03:24.950Z,7.10
2019-01-31T18:05:53.521Z,7.10
2019-01-31T18:08:22.112Z,7.20
2019-01-31T18:10:50.983Z,7.00
2019-01-31T18:13:19.468Z,7.00
2019-01-31T18:15:48.175Z,7.00
2019-01-31T18:18:16.665Z,6.90
2019-01-31T18:20:45.251Z,7.20
2019-01-31T18:23:13.618Z,7.10
2019-01-31T18:25:42.227Z,7.20
2019-01-31T18:28:12.385Z,7.20
2019-01-31T18:30:41.219Z,7.10
2019-01-31T18:33:10.104Z,7.20
2019-01-31T18:35:38.898Z,7.10
2019-01-31T18:38:07.497Z,7.30
2019-01-31T18:40:36.166Z,7.40
2019-01-31T18:43:05.008Z,7.50
2019-01-31T18:45:33.639Z,7.50
2019-01-31T18:48:02.353Z,7.30
2019-01-31T18:50:33.018Z,7.20
2019-01-31T18:53:01.839Z,7.00
2019-01-31T18:55:31.505Z,7.10
2019-01-31T18:58:00.163Z,7.40
2019-01-31T19:00:31.250Z,7.30
2019-01-31T19:02:59.987Z,7.00
2019-01-31T19:05:28.830Z,7.10
2019-01-31T19:07:57.486Z,7.00
2019-01-31T19:10:26.095Z,7.10
2019-01-31T19:12:55.258Z,7.20
2019-01-31T19:15:24.347Z,7.40
2019-01-31T19:18:04.503Z,7.00
2019-01-31T19:20:26.354Z,6.80
2019-01-31T19:22:56.106Z,7.00
2019-01-31T19:25:24.735Z,6.70
2019-01-31T19:27:53.382Z,6.90
2019-01-31T19:30:24.185Z,6.80
2019-01-31T19:32:54.091Z,6.90
2019-01-31T19:35:23.002Z,6.90
2019-01-31T19:38:01.517Z,6.90
2019-01-31T19:40:24.625Z,6.90
2019-01-31T19:42:53.566Z,7.20
2019-01-31T19:45:24.859Z,7.00
2019-01-31T19:47:53.927Z,6.90
2019-01-31T19:50:23.065Z,6.80
2019-01-31T19:52:52.137Z,7.00
2019-01-31T19:55:25.720Z,6.90
2019-01-31T19:58:19.720Z,7.20
2019-01-31T20:00:53.351Z,7.00
2019-01-31T20:03:29.199Z,7.00
2019-01-31T20:05:58.654Z,7.00
2019-01-31T20:08:27.241Z,6.70
2019-01-31T20:10:55.821Z,6.70
2019-01-31T20:13:24.631Z,6.70
2019-01-31T20:15:53.238Z,6.80
2019-01-31T20:18:22.913Z,6.70
2019-01-31T20:20:51.351Z,6.70
2019-01-31T20:23:21.116Z,6.50
2019-01-31T20:25:49.875Z,6.60
2019-01-31T20:28:18.352Z,6.70
2019-01-31T20:30:48.034Z,6.60
2019-01-31T20:33:16.428Z,6.60
2019-01-31T20:35:45.101Z,6.60
2019-01-31T20:38:13.612Z,6.70
2019-01-31T20:40:43.118Z,10.20
2019-01-31T20:43:11.726Z,6.70
2019-01-31T20:45:40.362Z,6.70
2019-01-31T20:48:09.343Z,6.70
2019-01-31T20:50:39.925Z,6.60
2019-01-31T20:53:08.591Z,6.70
2019-01-31T20:55:38.396Z,11.10
2019-01-31T20:58:07.050Z,7.10
2019-01-31T21:00:41.763Z,7.10
2019-01-31T21:03:10.613Z,6.70
2019-01-31T21:05:39.619Z,6.90
2019-01-31T21:08:09.113Z,7.00
2019-01-31T21:10:37.663Z,6.90
2019-01-31T21:13:07.103Z,6.70
2019-01-31T21:15:35.822Z,6.80
2019-01-31T21:18:05.422Z,6.40
2019-01-31T21:20:34.045Z,6.60
2019-01-31T21:23:04.040Z,6.70
2019-01-31T21:25:34.400Z,6.70
2019-01-31T21:28:03.271Z,6.60
2019-01-31T21:30:34.046Z,6.50
2019-01-31T21:33:02.678Z,6.60
2019-01-31T21:35:31.444Z,6.50
2019-01-31T21:38:00.375Z,6.60
2019-01-31T21:40:31.443Z,6.50
2019-01-31T21:43:00.059Z,6.50
2019-01-31T21:45:28.739Z,6.70
2019-01-31T21:50:26.281Z,6.50
2019-01-31T21:52:54.850Z,6.70
2019-01-31T21:57:51.867Z,6.50
2019-01-31T22:00:25.499Z,6.40
2019-01-31T22:02:54.195Z,6.40
2019-01-31T22:05:22.639Z,6.30
2019-01-31T22:07:51.190Z,6.40
2019-01-31T22:10:20.129Z,6.30
2019-01-31T22:12:48.801Z,6.50
2019-01-31T22:15:25.347Z,6.30
2019-01-31T22:17:57.130Z,6.30
2019-01-31T22:20:25.627Z,6.00
2019-01-31T22:22:54.283Z,6.10
2019-01-31T22:25:23.092Z,6.00
2019-01-31T22:30:22.349Z,6.20
2019-01-31T22:32:51.091Z,6.10
2019-01-31T22:35:19.708Z,6.30
2019-01-31T22:37:48.310Z,6.20
2019-01-31T22:40:17.074Z,6.10
2019-01-31T22:42:45.708Z,6.00
2019-01-31T22:45:16.443Z,6.30
2019-01-31T22:47:45.054Z,6.40
2019-01-31T22:50:16.191Z,6.20
2019-01-31T22:52:45.765Z,6.10
2019-01-31T22:57:43.490Z,6.20
2019-01-31T23:00:45.003Z,6.20
2019-01-31T23:03:13.502Z,6.10
2019-01-31T23:05:42.256Z,6.20
2019-01-31T23:08:10.719Z,5.90
2019-01-31T23:10:39.302Z,6.00
2019-01-31T23:13:07.948Z,6.10
2019-01-31T23:15:36.692Z,6.20
2019-01-31T23:18:05.833Z,6.30
2019-01-31T23:20:35.165Z,6.20
2019-01-31T23:23:03.821Z,6.30
2019-01-31T23:25:39.648Z,6.10
2019-01-31T23:28:05.219Z,6.20
2019-01-31T23:30:34.070Z,6.10
2019-01-31T23:33:02.802Z,6.30
2019-01-31T23:35:31.322Z,6.10
2019-01-31T23:38:00.043Z,6.20
2019-01-31T23:40:28.530Z,6.10
2019-01-31T23:45:25.443Z,6.20
2019-01-31T23:47:53.989Z,6.00
2019-01-31T23:52:50.707Z,5.90
2019-01-31T23:55:19.396Z,5.90
2019-01-31T23:57:48.044Z,5.80
